createdAt,value
2023-01-09T00:00:52.481Z,79.50
2023-01-09T00:03:19.076Z,74.32
2023-01-09T00:05:45.676Z,77.47
2023-01-09T00:08:12.266Z,73.57
2023-01-09T00:10:38.984Z,70.45
2023-01-09T00:13:05.569Z,69.85
2023-01-09T00:15:32.225Z,66.05
2023-01-09T00:17:58.782Z,73.70
2023-01-09T00:20:25.347Z,68.50
2023-01-09T00:22:51.941Z,58.70
2023-01-09T00:25:18.540Z,62.08
2023-01-09T00:27:45.770Z,58.60
2023-01-09T00:30:12.587Z,58.55
2023-01-09T00:32:39.205Z,58.80
2023-01-09T00:35:07.138Z,55.10
2023-01-09T00:37:33.693Z,58.40
2023-01-09T00:40:00.333Z,58.70
2023-01-09T00:42:31.984Z,65.28
2023-01-09T00:45:09.664Z,59.05
2023-01-09T00:47:43.120Z,56.00
2023-01-09T00:50:23.529Z,60.05
2023-01-09T00:52:53.638Z,57.58
2023-01-09T00:55:20.755Z,62.45
2023-01-09T00:57:47.756Z,66.07
2023-01-09T01:00:14.714Z,61.60
2023-01-09T01:02:41.378Z,63.95
2023-01-09T01:05:26.921Z,65.07
2023-01-09T01:07:53.656Z,59.92
2023-01-09T01:10:22.854Z,61.58
2023-01-09T01:12:50.558Z,63.72
2023-01-09T01:15:18.273Z,65.88
2023-01-09T01:17:45.452Z,57.58
2023-01-09T01:20:16.518Z,62.10
2023-01-09T01:22:43.548Z,56.45
2023-01-09T01:25:12.264Z,54.72
2023-01-09T01:27:39.476Z,60.75
2023-01-09T01:30:08.282Z,56.97
2023-01-09T01:32:34.952Z,48.75
2023-01-09T01:35:01.742Z,53.63
2023-01-09T01:37:28.312Z,50.60
2023-01-09T01:39:55.206Z,55.45
2023-01-09T01:42:22.188Z,50.58
2023-01-09T01:45:27.362Z,54.95
2023-01-09T01:48:09.114Z,52.72
2023-01-09T01:50:44.733Z,53.50
2023-01-09T01:53:26.683Z,57.85
2023-01-09T01:55:56.176Z,56.40
2023-01-09T01:58:22.843Z,55.95
2023-01-09T02:00:49.632Z,52.83
2023-01-09T02:03:19.151Z,56.00
2023-01-09T02:05:46.036Z,47.58
2023-01-09T02:08:12.864Z,48.42
2023-01-09T02:10:39.884Z,52.90
2023-01-09T02:13:08.312Z,48.47
2023-01-09T02:15:59.808Z,49.05
2023-01-09T02:18:37.767Z,48.17
2023-01-09T02:21:30.856Z,49.05
2023-01-09T02:24:38.407Z,46.03
2023-01-09T02:27:19.186Z,48.83
2023-01-09T02:30:20.756Z,45.55
2023-01-09T02:33:14.920Z,45.67
2023-01-09T02:35:41.414Z,46.05
2023-01-09T02:38:17.449Z,44.78
2023-01-09T02:41:08.553Z,44.67
2023-01-09T02:43:35.151Z,45.38
2023-01-09T02:46:01.768Z,42.88
2023-01-09T02:48:29.609Z,43.10
2023-01-09T02:50:59.160Z,43.35
2023-01-09T02:53:57.684Z,44.08
2023-01-09T02:56:46.733Z,43.80
2023-01-09T02:59:28.367Z,50.70
2023-01-09T03:02:06.880Z,42.10
2023-01-09T03:05:10.222Z,43.58
2023-01-09T03:07:45.630Z,43.92
2023-01-09T03:10:20.828Z,44.67
2023-01-09T03:12:51.728Z,45.47
2023-01-09T03:15:20.878Z,43.35
2023-01-09T03:17:49.674Z,41.78
2023-01-09T03:20:21.171Z,41.55
2023-01-09T03:23:00.118Z,42.80
2023-01-09T03:25:28.709Z,41.67
2023-01-09T03:28:07.534Z,41.50
2023-01-09T03:30:36.631Z,40.63
2023-01-09T03:33:03.322Z,42.20
2023-01-09T03:35:29.951Z,44.42
2023-01-09T03:37:56.493Z,43.85
2023-01-09T03:40:23.058Z,47.35
2023-01-09T03:42:49.651Z,44.28
2023-01-09T03:45:16.340Z,43.33
2023-01-09T03:47:42.921Z,41.15
2023-01-09T03:50:10.044Z,46.85
2023-01-09T03:52:36.602Z,50.45
2023-01-09T03:55:03.360Z,49.10
2023-01-09T03:57:29.929Z,47.63
2023-01-09T03:59:56.573Z,47.80
2023-01-09T04:02:23.243Z,45.30
2023-01-09T04:04:49.957Z,42.78
2023-01-09T04:07:16.589Z,46.90
2023-01-09T04:09:43.180Z,52.50
2023-01-09T04:12:09.810Z,59.17
2023-01-09T04:14:36.361Z,53.28
2023-01-09T04:17:03.076Z,52.47
2023-01-09T04:19:29.796Z,58.75
2023-01-09T04:21:56.325Z,55.10
2023-01-09T04:24:22.909Z,53.13
2023-01-09T04:26:49.505Z,48.05
2023-01-09T04:29:16.080Z,52.78
2023-01-09T04:31:42.856Z,51.13
2023-01-09T04:34:09.439Z,51.40
2023-01-09T04:36:36.364Z,49.78
2023-01-09T04:39:03.707Z,49.17
2023-01-09T04:41:48.585Z,50.15
2023-01-09T04:44:23.079Z,53.60
2023-01-09T04:46:49.707Z,47.55
2023-01-09T04:49:16.319Z,56.35
2023-01-09T04:51:42.881Z,55.33
2023-01-09T04:54:09.635Z,52.97
2023-01-09T04:56:37.117Z,52.45
2023-01-09T04:59:04.596Z,53.78
2023-01-09T05:01:31.415Z,53.25
2023-01-09T05:03:58.333Z,58.40
2023-01-09T05:06:24.968Z,56.60
2023-01-09T05:08:51.555Z,53.53
2023-01-09T05:11:18.548Z,54.63
2023-01-09T05:13:45.287Z,59.17
2023-01-09T05:16:11.919Z,59.65
2023-01-09T05:18:39.330Z,52.28
2023-01-09T05:21:06.109Z,51.33
2023-01-09T05:23:32.682Z,52.38
2023-01-09T05:25:59.288Z,57.33
2023-01-09T05:28:25.889Z,63.20
2023-01-09T05:30:52.466Z,55.88
2023-01-09T05:33:19.049Z,58.03
2023-01-09T05:35:45.659Z,61.67
2023-01-09T05:38:13.173Z,62.58
2023-01-09T05:40:40.645Z,66.80
2023-01-09T05:43:07.527Z,68.43
2023-01-09T05:45:34.797Z,72.40
2023-01-09T05:48:01.516Z,57.55
2023-01-09T05:50:28.446Z,74.90
2023-01-09T05:52:55.135Z,73.07
2023-01-09T05:55:21.796Z,75.05
2023-01-09T05:57:48.364Z,66.35
2023-01-09T06:00:15.522Z,71.35
2023-01-09T06:02:42.367Z,77.30
2023-01-09T06:05:09.833Z,76.60
2023-01-09T06:07:39.929Z,69.05
2023-01-09T06:10:12.588Z,77.93
2023-01-09T06:12:39.235Z,74.72
2023-01-09T06:15:08.798Z,67.10
2023-01-09T06:17:35.668Z,64.93
2023-01-09T06:20:02.538Z,63.90
2023-01-09T06:22:29.353Z,72.80
2023-01-09T06:24:56.010Z,70.07
2023-01-09T06:27:22.580Z,75.93
2023-01-09T06:29:49.192Z,82.60
2023-01-09T06:32:15.788Z,89.47
2023-01-09T06:34:42.459Z,85.10
2023-01-09T06:37:09.167Z,75.65
2023-01-09T06:39:35.731Z,76.97
2023-01-09T06:42:02.611Z,68.10
2023-01-09T06:44:29.315Z,61.17
2023-01-09T06:46:55.986Z,66.43
2023-01-09T06:49:25.323Z,60.70
2023-01-09T06:51:52.179Z,60.28
2023-01-09T06:54:19.587Z,77.70
2023-01-09T06:56:46.339Z,63.20
2023-01-09T06:59:14.449Z,64.75
2023-01-09T07:01:41.220Z,73.82
2023-01-09T07:04:10.945Z,70.38
2023-01-09T07:06:37.673Z,78.50
2023-01-09T07:09:06.089Z,71.65
2023-01-09T07:11:33.034Z,83.95
2023-01-09T07:13:59.706Z,82.93
2023-01-09T07:16:26.344Z,80.63
2023-01-09T07:18:54.853Z,83.13
2023-01-09T07:21:21.727Z,71.82
2023-01-09T07:23:49.688Z,71.20
2023-01-09T07:26:16.458Z,75.38
2023-01-09T07:28:43.047Z,77.05
2023-01-09T07:31:09.640Z,57.42
2023-01-09T07:33:36.417Z,65.75
2023-01-09T07:36:03.139Z,48.85
2023-01-09T07:38:29.741Z,54.85
2023-01-09T07:40:56.345Z,65.45
2023-01-09T07:43:23.111Z,57.17
2023-01-09T07:45:49.691Z,51.35
2023-01-09T07:48:16.471Z,47.67
2023-01-09T07:50:43.029Z,69.93
2023-01-09T07:53:09.644Z,54.35
2023-01-09T07:55:36.238Z,64.63
2023-01-09T07:58:02.948Z,79.05
2023-01-09T08:00:30.392Z,75.68
2023-01-09T08:02:58.391Z,84.28
2023-01-09T08:05:25.124Z,75.95
2023-01-09T08:07:51.787Z,76.95
2023-01-09T08:10:19.789Z,74.97
2023-01-09T08:12:48.558Z,73.50
2023-01-09T08:15:16.055Z,81.10
2023-01-09T08:17:44.869Z,82.13
2023-01-09T08:20:13.454Z,74.88
2023-01-09T08:22:44.507Z,86.35
2023-01-09T08:25:12.468Z,70.68
2023-01-09T08:27:39.564Z,68.55
2023-01-09T08:30:06.843Z,71.75
2023-01-09T08:32:33.411Z,65.38
2023-01-09T08:35:00.076Z,68.50
2023-01-09T08:37:27.011Z,69.72
2023-01-09T08:39:53.754Z,80.60
2023-01-09T08:42:39.464Z,74.70
2023-01-09T08:45:25.224Z,78.45
2023-01-09T08:47:52.262Z,72.78
2023-01-09T08:50:19.104Z,77.75
2023-01-09T08:52:45.692Z,84.45
2023-01-09T08:55:12.453Z,72.95
2023-01-09T08:57:48.088Z,71.00
2023-01-09T09:00:15.188Z,79.03
2023-01-09T09:02:41.760Z,75.20
2023-01-09T09:05:08.720Z,80.60
2023-01-09T09:07:35.348Z,78.78
2023-01-09T09:10:02.009Z,82.82
2023-01-09T09:12:28.599Z,78.93
2023-01-09T09:15:13.292Z,76.18
2023-01-09T09:17:40.698Z,82.70
2023-01-09T09:20:09.199Z,57.75
2023-01-09T09:22:36.080Z,59.35
2023-01-09T09:25:04.617Z,62.92
2023-01-09T09:27:32.433Z,54.35
2023-01-09T09:29:59.033Z,47.30
2023-01-09T09:32:25.764Z,46.00
2023-01-09T09:34:52.442Z,40.42
2023-01-09T09:37:18.993Z,43.28
2023-01-09T09:39:45.681Z,41.97
2023-01-09T09:42:49.410Z,38.28
2023-01-09T09:45:24.239Z,38.05
2023-01-09T09:48:18.730Z,34.42
2023-01-09T09:51:22.832Z,30.38
2023-01-09T09:54:04.112Z,30.13
2023-01-09T09:56:36.318Z,32.50
2023-01-09T09:59:09.375Z,27.73
2023-01-09T10:01:53.242Z,25.15
2023-01-09T10:04:24.008Z,27.95
2023-01-09T10:06:56.416Z,23.92
2023-01-09T10:09:41.135Z,21.15
2023-01-09T10:12:08.218Z,22.02
2023-01-09T10:14:34.893Z,23.52
2023-01-09T10:17:19.960Z,19.10
2023-01-09T10:20:01.431Z,27.63
2023-01-09T10:22:44.960Z,21.58
2023-01-09T10:25:53.052Z,28.50
2023-01-09T10:28:35.041Z,31.92
2023-01-09T10:31:07.495Z,31.25
2023-01-09T10:33:45.985Z,32.88
2023-01-09T10:36:44.905Z,28.50
2023-01-09T10:39:18.844Z,29.80
2023-01-09T10:42:06.250Z,29.90
2023-01-09T10:44:39.695Z,31.88
2023-01-09T10:47:15.653Z,26.88
2023-01-09T10:49:42.266Z,26.20
2023-01-09T10:52:20.737Z,25.52
2023-01-09T10:55:19.388Z,30.48
2023-01-09T10:57:51.982Z,27.40
2023-01-09T11:00:24.315Z,27.48
2023-01-09T11:02:55.127Z,26.48
2023-01-09T11:05:30.570Z,26.45
2023-01-09T11:08:16.249Z,21.05
2023-01-09T11:10:48.031Z,21.83
2023-01-09T11:13:48.465Z,22.92
2023-01-09T11:16:21.187Z,22.80
2023-01-09T11:18:58.817Z,19.00
2023-01-09T11:21:35.920Z,19.38
2023-01-09T11:24:25.402Z,21.30
2023-01-09T11:27:13.060Z,17.90
2023-01-09T11:29:40.958Z,20.58
2023-01-09T11:32:23.987Z,19.30
2023-01-09T11:34:50.694Z,16.42
2023-01-09T11:37:29.513Z,17.83
2023-01-09T11:39:58.415Z,14.40
2023-01-09T11:42:46.462Z,15.30
2023-01-09T11:45:31.519Z,16.13
2023-01-09T11:47:59.153Z,15.48
2023-01-09T11:50:28.978Z,17.13
2023-01-09T11:53:15.140Z,16.00
2023-01-09T11:55:43.840Z,13.20
2023-01-09T11:58:21.755Z,13.25
2023-01-09T12:01:00.132Z,15.18
2023-01-09T12:03:58.540Z,14.63
2023-01-09T12:06:37.882Z,18.23
2023-01-09T12:09:07.213Z,22.33
2023-01-09T12:11:46.716Z,21.48
2023-01-09T12:14:19.134Z,17.08
2023-01-09T12:17:02.161Z,19.63
2023-01-09T12:19:43.951Z,18.27
2023-01-09T12:22:31.152Z,18.88
2023-01-09T12:25:21.025Z,16.48
2023-01-09T12:28:12.467Z,18.05
2023-01-09T12:30:57.446Z,16.15
2023-01-09T12:33:30.980Z,20.25
2023-01-09T12:36:06.195Z,20.48
2023-01-09T12:38:55.918Z,16.35
2023-01-09T12:41:23.072Z,17.50
2023-01-09T12:44:03.360Z,18.75
2023-01-09T12:46:40.548Z,12.93
2023-01-09T12:49:26.655Z,19.17
2023-01-09T12:51:53.206Z,16.67
2023-01-09T12:54:37.869Z,18.42
2023-01-09T12:57:14.103Z,21.70
2023-01-09T13:00:19.179Z,22.35
2023-01-09T13:03:00.587Z,17.48
2023-01-09T13:05:40.153Z,22.05
2023-01-09T13:08:15.584Z,15.07
2023-01-09T13:10:55.943Z,15.18
2023-01-09T13:13:30.282Z,16.45
2023-01-09T13:16:00.771Z,21.42
2023-01-09T13:18:42.465Z,18.88
2023-01-09T13:21:12.277Z,15.27
2023-01-09T13:23:56.902Z,11.93
2023-01-09T13:26:35.435Z,18.15
2023-01-09T13:29:34.466Z,16.67
2023-01-09T13:32:25.334Z,21.67
2023-01-09T13:34:55.175Z,16.65
2023-01-09T13:37:25.832Z,16.95
2023-01-09T13:39:59.773Z,16.05
2023-01-09T13:42:38.386Z,16.27
2023-01-09T13:45:17.072Z,18.25
2023-01-09T13:47:44.481Z,12.57
2023-01-09T13:50:11.023Z,19.38
2023-01-09T13:52:40.326Z,17.98
2023-01-09T13:55:14.891Z,17.95
2023-01-09T13:58:05.875Z,19.08
2023-01-09T14:00:35.550Z,16.00
2023-01-09T14:03:08.233Z,20.80
2023-01-09T14:05:34.835Z,18.98
2023-01-09T14:08:22.775Z,25.08
2023-01-09T14:10:51.465Z,18.08
2023-01-09T14:13:23.573Z,16.25
2023-01-09T14:15:52.118Z,17.95
2023-01-09T14:18:24.109Z,18.98
2023-01-09T14:21:00.771Z,21.50
2023-01-09T14:23:50.461Z,18.15
2023-01-09T14:26:21.799Z,17.75
2023-01-09T14:28:48.662Z,18.88
2023-01-09T14:31:33.710Z,17.00
2023-01-09T14:34:32.072Z,16.23
2023-01-09T14:37:01.628Z,15.15
2023-01-09T14:39:32.299Z,18.67
2023-01-09T14:42:09.151Z,17.13
2023-01-09T14:44:56.802Z,15.75
2023-01-09T14:47:32.557Z,17.48
2023-01-09T14:50:14.839Z,15.10
2023-01-09T14:52:59.316Z,16.65
2023-01-09T14:55:34.169Z,20.77
2023-01-09T14:58:22.775Z,19.13
2023-01-09T15:01:12.724Z,14.77
2023-01-09T15:03:43.974Z,16.67
2023-01-09T15:06:18.080Z,19.20
2023-01-09T15:08:46.609Z,17.10
2023-01-09T15:11:14.050Z,22.92
2023-01-09T15:13:48.077Z,20.58
2023-01-09T15:16:22.121Z,19.85
2023-01-09T15:18:52.142Z,21.45
2023-01-09T15:21:23.043Z,22.00
2023-01-09T15:23:50.093Z,19.10
2023-01-09T15:26:26.873Z,21.05
2023-01-09T15:29:00.919Z,21.33
2023-01-09T15:31:29.057Z,22.42
2023-01-09T15:33:56.615Z,21.90
2023-01-09T15:36:25.614Z,22.63
2023-01-09T15:38:53.232Z,25.15
2023-01-09T15:41:47.830Z,22.33
2023-01-09T15:44:18.956Z,23.15
2023-01-09T15:46:46.955Z,24.27
2023-01-09T15:49:14.537Z,26.30
2023-01-09T15:51:46.979Z,25.27
2023-01-09T15:54:25.351Z,27.73
2023-01-09T15:56:52.412Z,25.60
2023-01-09T15:59:29.386Z,26.20
2023-01-09T16:02:24.504Z,23.25
2023-01-09T16:04:53.783Z,23.55
2023-01-09T16:07:21.185Z,22.67
2023-01-09T16:09:52.813Z,23.65
2023-01-09T16:12:28.360Z,28.40
2023-01-09T16:14:57.859Z,28.15
2023-01-09T16:17:26.657Z,29.40
2023-01-09T16:19:54.398Z,24.20
2023-01-09T16:22:26.990Z,26.50
2023-01-09T16:24:55.803Z,28.83
2023-01-09T16:27:27.296Z,25.23
2023-01-09T16:29:58.202Z,24.75
2023-01-09T16:32:27.572Z,27.20
2023-01-09T16:34:59.831Z,26.38
2023-01-09T16:37:27.596Z,26.70
2023-01-09T16:40:09.104Z,31.58
2023-01-09T16:42:54.480Z,28.70
2023-01-09T16:45:21.492Z,27.60
2023-01-09T16:47:49.539Z,24.70
2023-01-09T16:50:16.239Z,26.23
2023-01-09T16:52:42.872Z,26.50
2023-01-09T16:55:10.147Z,27.65
2023-01-09T16:57:37.151Z,29.55
2023-01-09T17:00:04.417Z,33.38
2023-01-09T17:02:31.135Z,27.90
2023-01-09T17:04:59.256Z,32.33
2023-01-09T17:07:25.886Z,31.67
2023-01-09T17:09:53.346Z,28.88
2023-01-09T17:12:22.301Z,30.67
2023-01-09T17:14:49.986Z,29.90
2023-01-09T17:17:17.955Z,29.02
2023-01-09T17:19:46.756Z,31.33
2023-01-09T17:22:14.441Z,28.90
2023-01-09T17:25:00.070Z,26.92
2023-01-09T17:27:50.398Z,29.52
2023-01-09T17:30:19.436Z,30.13
2023-01-09T17:32:47.579Z,27.38
2023-01-09T17:35:15.887Z,27.88
2023-01-09T17:37:42.924Z,25.50
2023-01-09T17:40:18.244Z,25.67
2023-01-09T17:42:44.942Z,25.73
2023-01-09T17:45:11.983Z,30.25
2023-01-09T17:47:38.641Z,27.80
2023-01-09T17:50:06.232Z,27.25
2023-01-09T17:52:33.185Z,25.98
2023-01-09T17:55:05.321Z,29.15
2023-01-09T17:57:32.676Z,25.85
2023-01-09T17:59:59.227Z,28.33
2023-01-09T18:02:25.817Z,28.67
2023-01-09T18:04:52.560Z,23.88
2023-01-09T18:07:19.521Z,27.63
2023-01-09T18:09:46.211Z,27.63
2023-01-09T18:12:12.843Z,21.63
2023-01-09T18:14:40.807Z,25.55
2023-01-09T18:17:07.747Z,29.90
2023-01-09T18:19:34.610Z,26.55
2023-01-09T18:22:01.248Z,31.52
2023-01-09T18:24:27.804Z,31.15
2023-01-09T18:26:54.446Z,31.88
2023-01-09T18:29:21.473Z,33.72
2023-01-09T18:31:48.317Z,35.20
2023-01-09T18:34:14.965Z,33.13
2023-01-09T18:36:41.564Z,32.60
2023-01-09T18:39:08.804Z,32.83
2023-01-09T18:41:35.442Z,32.95
2023-01-09T18:44:02.392Z,36.03
2023-01-09T18:46:32.122Z,30.35
2023-01-09T18:49:04.521Z,32.08
2023-01-09T18:51:33.291Z,31.10
2023-01-09T18:54:00.174Z,19.48
2023-01-09T18:56:26.783Z,30.52
2023-01-09T18:58:57.857Z,27.23
2023-01-09T19:01:25.861Z,24.48
2023-01-09T19:03:52.668Z,29.25
2023-01-09T19:06:19.418Z,25.85
2023-01-09T19:08:46.190Z,26.92
2023-01-09T19:11:12.878Z,25.77
2023-01-09T19:13:39.613Z,28.40
2023-01-09T19:16:08.376Z,32.78
2023-01-09T19:18:45.606Z,33.45
2023-01-09T19:21:13.841Z,28.08
2023-01-09T19:23:44.738Z,27.42
2023-01-09T19:26:20.766Z,30.83
2023-01-09T19:28:48.187Z,29.38
2023-01-09T19:31:16.059Z,21.80
2023-01-09T19:33:43.868Z,27.27
2023-01-09T19:36:10.864Z,28.52
2023-01-09T19:38:38.369Z,30.40
2023-01-09T19:41:14.720Z,34.78
2023-01-09T19:43:41.961Z,29.38
2023-01-09T19:46:11.013Z,29.45
2023-01-09T19:48:37.732Z,25.30
2023-01-09T19:51:06.821Z,33.35
2023-01-09T19:53:34.909Z,30.45
2023-01-09T19:56:11.701Z,27.58
2023-01-09T19:58:38.902Z,19.33
2023-01-09T20:01:07.745Z,22.33
2023-01-09T20:03:34.382Z,29.38
2023-01-09T20:06:06.395Z,20.00
2023-01-09T20:08:33.593Z,20.75
2023-01-09T20:11:06.690Z,27.88
2023-01-09T20:13:34.342Z,29.15
2023-01-09T20:16:02.281Z,29.75
2023-01-09T20:18:30.039Z,31.38
2023-01-09T20:20:59.498Z,32.78
2023-01-09T20:23:32.532Z,17.75
2023-01-09T20:25:59.983Z,26.70
2023-01-09T20:28:27.502Z,28.83
2023-01-09T20:30:54.740Z,29.02
2023-01-09T20:33:22.158Z,33.55
2023-01-09T20:35:48.880Z,32.67
2023-01-09T20:38:16.092Z,26.52
2023-01-09T20:40:44.054Z,32.78
2023-01-09T20:43:12.627Z,23.63
2023-01-09T20:45:40.466Z,23.23
2023-01-09T20:48:08.293Z,22.33
2023-01-09T20:50:35.195Z,27.83
2023-01-09T20:53:02.493Z,28.90
2023-01-09T20:55:29.152Z,29.08
2023-01-09T20:57:55.915Z,35.22
2023-01-09T21:00:24.808Z,29.02
2023-01-09T21:02:51.424Z,15.40
2023-01-09T21:05:18.039Z,26.17
2023-01-09T21:07:44.667Z,18.17
2023-01-09T21:10:11.570Z,28.20
2023-01-09T21:12:38.510Z,24.90
2023-01-09T21:15:09.380Z,29.15
2023-01-09T21:17:37.844Z,20.90
2023-01-09T21:20:06.839Z,28.70
2023-01-09T21:22:35.020Z,25.92
2023-01-09T21:25:01.950Z,34.97
2023-01-09T21:27:38.432Z,37.20
2023-01-09T21:30:06.132Z,34.33
2023-01-09T21:32:32.980Z,42.83
2023-01-09T21:35:04.339Z,16.80
2023-01-09T21:37:33.447Z,38.00
2023-01-09T21:40:01.098Z,33.97
2023-01-09T21:42:46.717Z,43.83
2023-01-09T21:45:36.724Z,39.13
2023-01-09T21:48:05.569Z,30.25
2023-01-09T21:50:34.233Z,34.17
2023-01-09T21:53:00.819Z,24.33
2023-01-09T21:55:27.519Z,29.45
2023-01-09T21:57:58.420Z,28.17
2023-01-09T22:00:25.364Z,29.05
2023-01-09T22:02:52.322Z,25.83
2023-01-09T22:05:18.932Z,33.30
2023-01-09T22:07:45.569Z,29.45
2023-01-09T22:10:12.668Z,26.73
2023-01-09T22:12:39.483Z,30.10
2023-01-09T22:15:06.610Z,27.23
2023-01-09T22:17:33.217Z,27.73
2023-01-09T22:19:59.930Z,27.98
2023-01-09T22:22:26.536Z,15.25
2023-01-09T22:24:53.885Z,19.17
2023-01-09T22:27:20.471Z,32.88
2023-01-09T22:29:47.089Z,30.33
2023-01-09T22:32:13.770Z,20.50
2023-01-09T22:34:40.427Z,31.48
2023-01-09T22:37:07.041Z,33.75
2023-01-09T22:39:33.680Z,33.33
2023-01-09T22:42:00.232Z,28.40
2023-01-09T22:44:27.469Z,26.23
2023-01-09T22:46:54.114Z,26.55
2023-01-09T22:49:20.726Z,19.55
2023-01-09T22:51:47.312Z,33.45
2023-01-09T22:54:13.934Z,30.80
2023-01-09T22:56:40.519Z,23.83
2023-01-09T22:59:07.281Z,28.23
2023-01-09T23:01:33.973Z,31.08
2023-01-09T23:04:00.746Z,31.70
2023-01-09T23:06:27.436Z,15.95
2023-01-09T23:08:54.172Z,28.73
2023-01-09T23:11:45.777Z,29.83
2023-01-09T23:14:12.523Z,36.00
2023-01-09T23:16:39.391Z,20.27
2023-01-09T23:19:07.293Z,31.58
2023-01-09T23:21:33.865Z,25.33
2023-01-09T23:24:00.481Z,26.05
2023-01-09T23:26:27.261Z,25.45
2023-01-09T23:28:53.854Z,23.55
2023-01-09T23:31:20.477Z,24.77
2023-01-09T23:33:47.053Z,25.70
2023-01-09T23:36:13.584Z,23.48
2023-01-09T23:38:40.158Z,18.60
2023-01-09T23:41:08.386Z,15.23
2023-01-09T23:43:35.119Z,27.30
2023-01-09T23:46:01.761Z,26.70
2023-01-09T23:48:28.443Z,29.90
2023-01-09T23:50:55.405Z,25.98
2023-01-09T23:53:23.234Z,26.13
2023-01-09T23:55:52.391Z,28.17
2023-01-09T23:58:18.955Z,26.83
